createdAt,value
2018-12-10T00:00:20.465Z,166.63
2018-12-10T00:02:27.330Z,157.10
2018-12-10T00:04:34.127Z,155.53
2018-12-10T00:06:40.885Z,147.63
2018-12-10T00:08:47.699Z,144.17
2018-12-10T00:10:54.463Z,140.30
2018-12-10T00:13:01.470Z,140.93
2018-12-10T00:15:08.470Z,134.43
2018-12-10T00:17:15.691Z,138.83
2018-12-10T00:19:22.484Z,142.30
2018-12-10T00:21:29.520Z,134.23
2018-12-10T00:23:36.363Z,131.53
2018-12-10T00:25:43.352Z,118.17
2018-12-10T00:27:50.035Z,105.50
2018-12-10T00:29:56.838Z,111.47
2018-12-10T00:32:03.708Z,115.30
2018-12-10T00:34:10.795Z,126.20
2018-12-10T00:36:17.497Z,125.00
2018-12-10T00:38:24.591Z,118.10
2018-12-10T00:40:31.469Z,129.60
2018-12-10T00:42:38.341Z,125.10
2018-12-10T00:44:45.269Z,123.33
2018-12-10T00:46:52.463Z,118.33
2018-12-10T00:48:59.566Z,119.30
2018-12-10T00:51:06.546Z,120.20
2018-12-10T00:53:13.446Z,107.30
2018-12-10T00:55:20.069Z,112.53
2018-12-10T00:57:27.047Z,103.97
2018-12-10T00:59:34.032Z,94.23
2018-12-10T01:01:41.279Z,92.33
2018-12-10T01:03:48.126Z,97.47
2018-12-10T01:05:55.149Z,100.17
2018-12-10T01:08:01.820Z,90.70
2018-12-10T01:10:08.890Z,114.00
2018-12-10T01:12:15.695Z,89.90
2018-12-10T01:14:22.352Z,116.20
2018-12-10T01:16:29.524Z,102.13
2018-12-10T01:18:36.321Z,101.60
2018-12-10T01:20:43.209Z,97.10
2018-12-10T01:22:50.072Z,103.73
2018-12-10T01:24:56.939Z,102.63
2018-12-10T01:27:03.777Z,104.13
2018-12-10T01:29:10.677Z,84.60
2018-12-10T01:31:18.224Z,77.87
2018-12-10T01:33:25.683Z,82.00
2018-12-10T01:35:32.551Z,84.50
2018-12-10T01:37:39.154Z,79.73
2018-12-10T01:39:46.091Z,93.53
2018-12-10T01:41:53.016Z,98.67
2018-12-10T01:43:59.839Z,100.53
2018-12-10T01:46:06.536Z,104.23
2018-12-10T01:48:13.329Z,102.90
2018-12-10T01:50:20.265Z,106.50
2018-12-10T01:52:27.105Z,109.53
2018-12-10T01:54:34.154Z,108.57
2018-12-10T01:56:41.042Z,107.93
2018-12-10T01:58:48.724Z,110.97
2018-12-10T02:00:55.569Z,108.37
2018-12-10T02:03:02.477Z,95.40
2018-12-10T02:05:09.261Z,93.13
2018-12-10T02:07:16.234Z,96.33
2018-12-10T02:09:23.816Z,94.60
2018-12-10T02:11:30.848Z,84.33
2018-12-10T02:13:37.518Z,87.53
2018-12-10T02:15:44.486Z,98.63
2018-12-10T02:17:51.327Z,102.37
2018-12-10T02:19:58.044Z,109.07
2018-12-10T02:22:05.707Z,109.80
2018-12-10T02:24:13.898Z,113.07
2018-12-10T02:26:20.933Z,110.33
2018-12-10T02:28:32.123Z,113.60
2018-12-10T02:30:39.326Z,114.97
2018-12-10T02:32:47.400Z,117.67
2018-12-10T02:34:55.440Z,113.20
2018-12-10T02:37:02.957Z,119.07
2018-12-10T02:39:10.136Z,113.30
2018-12-10T02:41:17.189Z,115.10
2018-12-10T02:43:24.005Z,120.27
2018-12-10T02:45:31.411Z,119.07
2018-12-10T02:47:38.285Z,113.93
2018-12-10T02:49:45.212Z,111.70
2018-12-10T02:51:53.132Z,105.27
2018-12-10T02:54:00.165Z,113.70
2018-12-10T02:56:07.208Z,91.73
2018-12-10T02:58:14.173Z,104.23
2018-12-10T03:00:21.502Z,106.13
2018-12-10T03:02:28.278Z,109.67
2018-12-10T03:04:35.134Z,117.30
2018-12-10T03:06:42.222Z,112.67
2018-12-10T03:08:49.329Z,106.63
2018-12-10T03:10:57.036Z,116.13
2018-12-10T03:13:04.185Z,112.20
2018-12-10T03:15:10.981Z,111.87
2018-12-10T03:17:17.920Z,108.07
2018-12-10T03:19:24.679Z,112.73
2018-12-10T03:21:31.260Z,111.23
2018-12-10T03:23:38.252Z,114.70
2018-12-10T03:25:45.147Z,114.93
2018-12-10T03:27:52.119Z,117.33
2018-12-10T03:29:59.063Z,118.13
2018-12-10T03:32:05.948Z,116.17
2018-12-10T03:34:13.181Z,114.70
2018-12-10T03:36:19.858Z,118.37
2018-12-10T03:38:26.914Z,117.03
2018-12-10T03:40:34.011Z,115.67
2018-12-10T03:42:41.033Z,115.23
2018-12-10T03:44:48.023Z,124.40
2018-12-10T03:46:54.685Z,116.73
2018-12-10T03:49:02.136Z,110.80
2018-12-10T03:51:08.854Z,104.57
2018-12-10T03:53:15.635Z,109.13
2018-12-10T03:55:22.582Z,108.30
2018-12-10T03:57:29.233Z,110.60
2018-12-10T03:59:36.206Z,114.73
2018-12-10T04:01:43.653Z,114.50
2018-12-10T04:03:50.593Z,107.60
2018-12-10T04:05:57.337Z,102.47
2018-12-10T04:08:04.130Z,91.47
2018-12-10T04:10:10.927Z,91.23
2018-12-10T04:12:17.855Z,88.17
2018-12-10T04:14:24.587Z,91.47
2018-12-10T04:16:31.306Z,96.10
2018-12-10T04:18:38.399Z,110.17
2018-12-10T04:20:45.524Z,110.97
2018-12-10T04:22:52.492Z,112.80
2018-12-10T04:24:59.457Z,115.77
2018-12-10T04:27:07.191Z,114.17
2018-12-10T04:29:14.244Z,117.37
2018-12-10T04:31:21.057Z,116.30
2018-12-10T04:33:27.847Z,113.17
2018-12-10T04:35:34.577Z,112.90
2018-12-10T04:37:41.705Z,115.10
2018-12-10T04:39:48.423Z,110.43
2018-12-10T04:41:55.380Z,114.87
2018-12-10T04:44:02.307Z,118.17
2018-12-10T04:46:08.862Z,117.83
2018-12-10T04:48:15.654Z,114.90
2018-12-10T04:50:22.714Z,113.87
2018-12-10T04:52:29.845Z,96.57
2018-12-10T04:54:38.377Z,98.73
2018-12-10T04:56:45.568Z,92.73
2018-12-10T04:58:52.274Z,96.57
2018-12-10T05:00:58.945Z,87.00
2018-12-10T05:03:05.892Z,90.50
2018-12-10T05:05:13.079Z,92.47
2018-12-10T05:07:19.719Z,97.87
2018-12-10T05:09:26.543Z,112.63
2018-12-10T05:11:33.615Z,108.53
2018-12-10T05:13:40.656Z,114.20
2018-12-10T05:15:47.544Z,114.37
2018-12-10T05:17:54.733Z,116.10
2018-12-10T05:20:01.591Z,120.27
2018-12-10T05:22:08.605Z,119.90
2018-12-10T05:24:15.250Z,122.57
2018-12-10T05:26:22.391Z,123.87
2018-12-10T05:28:28.935Z,118.00
2018-12-10T05:30:35.766Z,101.80
2018-12-10T05:32:42.583Z,99.20
2018-12-10T05:34:49.443Z,98.33
2018-12-10T05:36:56.936Z,88.80
2018-12-10T05:39:04.181Z,87.97
2018-12-10T05:41:11.337Z,88.33
2018-12-10T05:43:17.751Z,85.07
2018-12-10T05:45:24.381Z,83.17
2018-12-10T05:47:31.257Z,85.63
2018-12-10T05:49:37.931Z,106.07
2018-12-10T05:51:45.003Z,104.23
2018-12-10T05:53:52.198Z,110.67
2018-12-10T05:55:59.686Z,119.37
2018-12-10T05:58:06.553Z,121.83
2018-12-10T06:00:13.510Z,119.47
2018-12-10T06:02:20.278Z,126.07
2018-12-10T06:04:27.076Z,116.30
2018-12-10T06:06:33.859Z,117.63
2018-12-10T06:08:40.633Z,114.30
2018-12-10T06:10:47.712Z,97.57
2018-12-10T06:12:54.747Z,92.00
2018-12-10T06:15:01.703Z,89.80
2018-12-10T06:17:09.073Z,97.50
2018-12-10T06:19:17.544Z,106.53
2018-12-10T06:21:24.526Z,111.30
2018-12-10T06:23:31.390Z,114.20
2018-12-10T06:25:38.178Z,116.07
2018-12-10T06:27:45.048Z,117.33
2018-12-10T06:29:51.731Z,122.10
2018-12-10T06:31:58.522Z,126.37
2018-12-10T06:34:05.038Z,123.80
2018-12-10T06:36:11.789Z,114.87
2018-12-10T06:38:18.694Z,104.93
2018-12-10T06:40:25.644Z,101.97
2018-12-10T06:42:32.779Z,89.43
2018-12-10T06:44:39.517Z,90.33
2018-12-10T06:46:46.445Z,87.00
2018-12-10T06:48:53.300Z,89.80
2018-12-10T06:51:00.203Z,89.63
2018-12-10T06:53:07.083Z,108.77
2018-12-10T06:55:14.118Z,111.53
2018-12-10T06:57:21.094Z,115.60
2018-12-10T06:59:27.967Z,118.67
2018-12-10T07:01:34.799Z,122.10
2018-12-10T07:03:41.762Z,123.53
2018-12-10T07:05:48.550Z,118.50
2018-12-10T07:07:55.358Z,117.57
2018-12-10T07:10:02.103Z,104.03
2018-12-10T07:12:09.145Z,95.43
2018-12-10T07:14:15.806Z,94.37
2018-12-10T07:16:22.607Z,92.43
2018-12-10T07:18:29.338Z,90.37
2018-12-10T07:20:35.908Z,93.90
2018-12-10T07:22:42.628Z,100.00
2018-12-10T07:24:49.373Z,110.83
2018-12-10T07:26:56.235Z,113.37
2018-12-10T07:29:03.363Z,117.57
2018-12-10T07:31:10.329Z,120.87
2018-12-10T07:33:17.439Z,118.17
2018-12-10T07:35:24.146Z,121.67
2018-12-10T07:37:31.126Z,122.67
2018-12-10T07:39:37.894Z,124.87
2018-12-10T07:41:44.974Z,127.87
2018-12-10T07:43:52.590Z,114.73
2018-12-10T07:45:59.424Z,104.73
2018-12-10T07:48:06.032Z,94.03
2018-12-10T07:50:12.886Z,91.43
2018-12-10T07:52:19.359Z,90.93
2018-12-10T07:54:26.275Z,94.17
2018-12-10T07:56:33.147Z,90.60
2018-12-10T07:58:40.150Z,86.30
2018-12-10T08:00:47.085Z,92.07
2018-12-10T08:02:54.014Z,95.83
2018-12-10T08:05:01.072Z,106.57
2018-12-10T08:07:07.866Z,112.23
2018-12-10T08:09:14.599Z,112.17
2018-12-10T08:11:21.450Z,122.67
2018-12-10T08:13:28.274Z,124.33
2018-12-10T08:15:35.234Z,126.90
2018-12-10T08:17:42.038Z,124.73
2018-12-10T08:19:48.681Z,123.23
2018-12-10T08:21:55.902Z,125.70
2018-12-10T08:24:02.880Z,128.67
2018-12-10T08:26:09.597Z,127.13
2018-12-10T08:28:16.386Z,123.53
2018-12-10T08:30:23.166Z,116.67
2018-12-10T08:32:30.298Z,102.53
2018-12-10T08:36:46.979Z,94.03
2018-12-10T08:38:53.850Z,88.20
2018-12-10T08:39:15.221Z,99.80
2018-12-10T08:41:00.835Z,98.60
2018-12-10T08:43:07.599Z,86.57
2018-12-10T08:45:14.334Z,84.40
2018-12-10T08:47:21.702Z,85.37
2018-12-10T08:49:28.698Z,87.17
2018-12-10T08:51:35.637Z,91.53
2018-12-10T08:53:42.499Z,105.43
2018-12-10T08:55:49.562Z,108.87
2018-12-10T08:57:56.267Z,114.80
2018-12-10T09:00:03.333Z,120.37
2018-12-10T09:02:10.650Z,127.80
2018-12-10T09:04:17.753Z,124.20
2018-12-10T09:06:25.378Z,122.20
2018-12-10T09:08:32.522Z,117.60
2018-12-10T09:10:40.099Z,103.50
2018-12-10T09:12:47.557Z,95.23
2018-12-10T09:14:54.537Z,92.33
2018-12-10T09:17:01.096Z,89.87
2018-12-10T09:19:07.755Z,87.90
2018-12-10T09:21:14.975Z,90.07
2018-12-10T09:23:21.914Z,93.37
2018-12-10T09:25:28.874Z,110.50
2018-12-10T09:27:35.495Z,124.23
2018-12-10T09:29:42.714Z,122.33
2018-12-10T09:31:49.589Z,129.47
2018-12-10T09:33:56.733Z,132.07
2018-12-10T09:36:03.486Z,127.07
2018-12-10T09:38:10.316Z,133.27
2018-12-10T09:40:17.965Z,130.67
2018-12-10T09:42:25.102Z,126.47
2018-12-10T09:44:31.994Z,125.17
2018-12-10T09:46:38.836Z,101.43
2018-12-10T09:48:45.846Z,97.57
2018-12-10T09:50:52.706Z,94.07
2018-12-10T09:52:59.630Z,92.70
2018-12-10T09:55:06.306Z,91.70
2018-12-10T09:57:13.702Z,89.77
2018-12-10T09:59:20.517Z,94.43
2018-12-10T10:01:27.553Z,111.47
2018-12-10T10:03:34.590Z,108.47
2018-12-10T10:05:41.474Z,118.90
2018-12-10T10:07:48.314Z,123.13
2018-12-10T10:09:55.520Z,119.63
2018-12-10T10:12:02.307Z,126.90
2018-12-10T10:14:09.049Z,128.07
2018-12-10T10:16:15.808Z,125.67
2018-12-10T10:18:22.706Z,125.97
2018-12-10T10:20:29.477Z,132.40
2018-12-10T10:22:36.587Z,133.40
2018-12-10T10:24:43.281Z,135.77
2018-12-10T10:26:50.205Z,125.20
2018-12-10T10:28:56.901Z,114.80
2018-12-10T10:31:03.883Z,109.97
2018-12-10T10:33:10.571Z,97.03
2018-12-10T10:35:17.558Z,91.53
2018-12-10T10:37:24.363Z,90.17
2018-12-10T10:39:31.257Z,90.97
2018-12-10T10:41:38.120Z,91.77
2018-12-10T10:43:45.033Z,86.87
2018-12-10T10:45:51.851Z,88.57
2018-12-10T10:47:58.888Z,84.27
2018-12-10T10:50:05.638Z,84.27
2018-12-10T10:52:12.655Z,115.17
2018-12-10T10:54:19.707Z,121.53
2018-12-10T10:56:26.530Z,121.93
2018-12-10T10:58:33.332Z,126.27
2018-12-10T11:00:44.939Z,122.67
2018-12-10T11:02:59.266Z,121.87
2018-12-10T11:05:06.742Z,123.07
2018-12-10T11:07:13.502Z,115.07
2018-12-10T11:09:20.334Z,106.40
2018-12-10T11:11:27.306Z,90.47
2018-12-10T11:13:34.127Z,94.77
2018-12-10T11:15:40.965Z,95.47
2018-12-10T11:17:47.960Z,87.87
2018-12-10T11:19:55.176Z,94.20
2018-12-10T11:22:02.016Z,92.57
2018-12-10T11:24:08.775Z,91.10
2018-12-10T11:26:15.490Z,86.90
2018-12-10T11:28:22.503Z,90.67
2018-12-10T11:30:29.130Z,88.53
2018-12-10T11:32:35.901Z,119.37
2018-12-10T11:34:42.750Z,126.67
2018-12-10T11:36:49.688Z,125.50
2018-12-10T11:38:58.093Z,118.00
2018-12-10T11:41:05.014Z,124.23
2018-12-10T11:43:12.025Z,124.63
2018-12-10T11:45:19.599Z,122.67
2018-12-10T11:47:26.906Z,122.43
2018-12-10T11:49:33.920Z,128.93
2018-12-10T11:51:41.250Z,129.97
2018-12-10T11:53:49.386Z,120.77
2018-12-10T11:55:55.927Z,128.27
2018-12-10T11:58:02.590Z,122.47
2018-12-10T12:00:11.256Z,121.97
2018-12-10T12:02:18.085Z,132.73
2018-12-10T12:04:24.916Z,134.33
2018-12-10T12:06:31.693Z,119.63
2018-12-10T12:08:38.462Z,122.23
2018-12-10T12:10:45.074Z,118.77
2018-12-10T12:12:52.013Z,120.27
2018-12-10T12:14:58.950Z,110.20
2018-12-10T12:17:05.864Z,104.43
2018-12-10T12:19:12.656Z,100.30
2018-12-10T12:21:19.349Z,94.00
2018-12-10T12:23:26.346Z,90.97
2018-12-10T12:25:33.322Z,87.57
2018-12-10T12:27:40.381Z,91.30
2018-12-10T12:29:47.171Z,84.67
2018-12-10T12:31:54.174Z,88.67
2018-12-10T12:34:00.930Z,87.60
2018-12-10T12:36:07.569Z,83.73
2018-12-10T12:38:14.238Z,86.50
2018-12-10T12:40:21.192Z,84.00
2018-12-10T12:42:28.099Z,84.17
2018-12-10T12:44:35.914Z,82.90
2018-12-10T12:46:42.878Z,82.40
2018-12-10T12:48:49.663Z,86.47
2018-12-10T12:50:56.468Z,83.20
2018-12-10T12:53:03.432Z,74.53
2018-12-10T12:55:10.437Z,78.07
2018-12-10T12:57:17.103Z,75.13
2018-12-10T12:59:24.102Z,88.90
2018-12-10T13:01:30.807Z,78.30
2018-12-10T13:03:37.584Z,78.57
2018-12-10T13:05:45.177Z,82.40
2018-12-10T13:07:51.934Z,85.80
2018-12-10T13:09:58.760Z,80.67
2018-12-10T13:12:05.617Z,81.43
2018-12-10T13:14:12.560Z,77.97
2018-12-10T13:16:19.910Z,78.20
2018-12-10T13:18:26.966Z,78.00
2018-12-10T13:20:33.994Z,76.07
2018-12-10T13:22:47.242Z,72.23
2018-12-10T13:24:50.535Z,76.07
2018-12-10T13:26:58.127Z,77.73
2018-12-10T13:29:04.977Z,75.03
2018-12-10T13:31:11.715Z,74.10
2018-12-10T13:33:18.694Z,81.83
2018-12-10T13:35:25.364Z,109.60
2018-12-10T13:37:32.257Z,102.70
2018-12-10T13:39:39.038Z,110.40
2018-12-10T13:41:45.966Z,100.83
2018-12-10T13:43:53.437Z,105.97
2018-12-10T13:46:00.178Z,104.47
2018-12-10T13:48:06.962Z,101.60
2018-12-10T13:50:13.974Z,104.23
2018-12-10T13:52:20.706Z,99.70
2018-12-10T13:54:28.323Z,86.23
2018-12-10T13:56:35.249Z,81.33
2018-12-10T13:58:41.835Z,76.93
2018-12-10T14:00:51.031Z,84.30
2018-12-10T14:02:59.528Z,79.57
2018-12-10T14:05:10.444Z,80.77
2018-12-10T14:07:18.132Z,71.30
2018-12-10T14:09:24.898Z,95.17
2018-12-10T14:11:31.607Z,87.03
2018-12-10T14:13:37.862Z,94.33
2018-12-10T14:15:44.709Z,97.07
2018-12-10T14:17:51.474Z,97.97
2018-12-10T14:19:58.043Z,98.67
2018-12-10T14:22:05.122Z,101.67
2018-12-10T14:24:11.977Z,101.77
2018-12-10T14:26:18.854Z,95.43
2018-12-10T14:28:25.707Z,90.10
2018-12-10T14:30:32.524Z,80.77
2018-12-10T14:32:39.562Z,82.27
2018-12-10T14:34:46.566Z,78.87
2018-12-10T14:36:53.529Z,79.50
2018-12-10T14:39:00.426Z,74.47
2018-12-10T14:41:07.046Z,75.40
2018-12-10T14:43:14.536Z,77.53
2018-12-10T14:45:22.163Z,94.60
2018-12-10T14:47:29.685Z,115.17
2018-12-10T14:49:36.541Z,113.03
2018-12-10T14:51:43.358Z,107.70
2018-12-10T14:53:50.141Z,112.37
2018-12-10T14:55:57.052Z,111.03
2018-12-10T14:58:04.208Z,113.80
2018-12-10T15:00:13.422Z,109.47
2018-12-10T15:02:20.514Z,94.23
2018-12-10T15:04:27.443Z,89.17
2018-12-10T15:06:34.258Z,84.10
2018-12-10T15:08:42.037Z,82.77
2018-12-10T15:10:49.017Z,77.87
2018-12-10T15:12:55.810Z,79.17
2018-12-10T15:15:02.697Z,84.20
2018-12-10T15:17:09.461Z,101.70
2018-12-10T15:19:16.642Z,109.90
2018-12-10T15:21:23.678Z,106.30
2018-12-10T15:23:30.394Z,103.83
2018-12-10T15:25:37.095Z,107.13
2018-12-10T15:27:43.905Z,106.83
2018-12-10T15:29:50.665Z,104.93
2018-12-10T15:31:57.505Z,109.20
2018-12-10T15:34:04.672Z,113.43
2018-12-10T15:36:12.049Z,105.63
2018-12-10T15:38:18.985Z,112.27
2018-12-10T15:40:25.825Z,112.53
2018-12-10T15:42:33.802Z,113.87
2018-12-10T15:44:40.726Z,113.07
2018-12-10T15:46:47.897Z,108.77
2018-12-10T15:48:54.918Z,103.93
2018-12-10T15:51:01.685Z,94.43
2018-12-10T15:53:08.390Z,95.17
2018-12-10T15:55:15.045Z,91.10
2018-12-10T15:57:21.851Z,84.13
2018-12-10T15:59:28.633Z,84.27
2018-12-10T16:01:35.289Z,89.77
2018-12-10T16:03:42.422Z,111.53
2018-12-10T16:05:49.213Z,110.33
2018-12-10T16:07:56.055Z,111.93
2018-12-10T16:10:02.893Z,110.80
2018-12-10T16:12:09.670Z,113.53
2018-12-10T16:14:16.787Z,111.73
2018-12-10T16:16:23.585Z,111.13
2018-12-10T16:18:30.325Z,109.27
2018-12-10T16:20:36.906Z,116.50
2018-12-10T16:22:43.515Z,109.83
2018-12-10T16:24:50.284Z,114.60
2018-12-10T16:26:57.087Z,116.83
2018-12-10T16:29:03.778Z,117.80
2018-12-10T16:31:10.849Z,112.93
2018-12-10T16:33:18.477Z,106.53
2018-12-10T16:35:25.256Z,109.40
2018-12-10T16:37:32.554Z,95.57
2018-12-10T16:39:43.753Z,87.07
2018-12-10T16:41:48.438Z,88.17
2018-12-10T16:43:55.398Z,84.40
2018-12-10T16:46:02.046Z,80.93
2018-12-10T16:48:09.629Z,96.37
2018-12-10T16:50:16.346Z,115.00
2018-12-10T16:52:23.109Z,99.70
2018-12-10T16:54:30.725Z,112.33
2018-12-10T16:56:37.621Z,105.70
2018-12-10T16:58:44.680Z,106.93
2018-12-10T17:00:51.662Z,110.60
2018-12-10T17:02:58.480Z,106.63
2018-12-10T17:05:07.777Z,98.57
2018-12-10T17:07:14.596Z,106.53
2018-12-10T17:09:21.805Z,105.43
2018-12-10T17:11:28.980Z,111.23
2018-12-10T17:13:35.706Z,108.13
2018-12-10T17:15:42.708Z,115.87
2018-12-10T17:17:49.668Z,112.63
2018-12-10T17:19:56.497Z,105.80
2018-12-10T17:22:03.309Z,103.80
2018-12-10T17:24:10.676Z,108.17
2018-12-10T17:26:17.762Z,104.63
2018-12-10T17:28:24.621Z,101.60
2018-12-10T17:30:31.843Z,107.60
2018-12-10T17:32:38.946Z,100.67
2018-12-10T17:34:45.726Z,89.47
2018-12-10T17:36:52.534Z,93.40
2018-12-10T17:38:59.506Z,90.57
2018-12-10T17:41:06.687Z,89.70
2018-12-10T17:43:13.630Z,104.77
2018-12-10T17:45:20.650Z,111.03
2018-12-10T17:47:27.325Z,92.87
2018-12-10T17:49:34.172Z,109.40
2018-12-10T17:51:41.036Z,101.07
2018-12-10T17:53:48.106Z,107.50
2018-12-10T17:55:55.104Z,103.57
2018-12-10T17:58:02.002Z,105.13
2018-12-10T18:00:11.006Z,96.60
2018-12-10T18:02:17.828Z,98.60
2018-12-10T18:04:24.675Z,94.97
2018-12-10T18:06:31.585Z,99.57
2018-12-10T18:08:38.424Z,105.33
2018-12-10T18:10:45.843Z,106.07
2018-12-10T18:12:52.565Z,103.83
2018-12-10T18:14:59.161Z,102.57
2018-12-10T18:17:06.154Z,106.20
2018-12-10T18:19:12.974Z,100.30
2018-12-10T18:21:20.154Z,103.13
2018-12-10T18:23:26.914Z,95.20
2018-12-10T18:25:33.836Z,92.33
2018-12-10T18:27:40.513Z,89.90
2018-12-10T18:29:47.590Z,88.80
2018-12-10T18:31:54.321Z,100.10
2018-12-10T18:34:01.294Z,121.03
2018-12-10T18:36:08.081Z,100.37
2018-12-10T18:38:14.954Z,107.77
2018-12-10T18:40:22.048Z,101.73
2018-12-10T18:42:29.395Z,101.27
2018-12-10T18:44:36.409Z,98.47
2018-12-10T18:46:43.234Z,103.57
2018-12-10T18:48:50.103Z,93.70
2018-12-10T18:50:57.112Z,101.27
2018-12-10T18:53:04.505Z,100.63
2018-12-10T18:55:11.486Z,104.93
2018-12-10T18:57:18.589Z,103.63
2018-12-10T18:59:26.100Z,111.37
2018-12-10T19:01:32.901Z,109.57
2018-12-10T19:03:39.539Z,97.30
2018-12-10T19:05:47.821Z,102.93
2018-12-10T19:07:54.778Z,104.97
2018-12-10T19:10:01.742Z,108.53
2018-12-10T19:12:08.391Z,104.97
2018-12-10T19:14:15.378Z,112.57
2018-12-10T19:16:22.182Z,109.67
2018-12-10T19:18:29.036Z,103.60
2018-12-10T19:20:35.915Z,103.63
2018-12-10T19:22:42.817Z,99.70
2018-12-10T19:24:49.837Z,93.53
2018-12-10T19:26:56.740Z,86.83
2018-12-10T19:29:03.561Z,90.70
2018-12-10T19:31:10.241Z,91.33
2018-12-10T19:33:17.257Z,97.40
2018-12-10T19:35:24.026Z,100.33
2018-12-10T19:37:31.074Z,105.43
2018-12-10T19:39:38.018Z,103.53
2018-12-10T19:41:45.187Z,114.67
2018-12-10T19:43:52.681Z,110.37
2018-12-10T19:45:59.686Z,117.03
2018-12-10T19:48:06.586Z,115.50
2018-12-10T19:50:13.473Z,109.67
2018-12-10T19:52:20.201Z,111.67
2018-12-10T19:54:26.984Z,108.10
2018-12-10T19:56:33.908Z,112.70
2018-12-10T19:58:40.674Z,108.50
2018-12-10T20:00:47.554Z,111.70
2018-12-10T20:02:54.683Z,108.43
2018-12-10T20:05:01.697Z,97.13
2018-12-10T20:07:09.379Z,107.17
2018-12-10T20:09:16.549Z,97.43
2018-12-10T20:11:23.412Z,100.30
2018-12-10T20:13:30.397Z,101.70
2018-12-10T20:15:37.323Z,102.60
2018-12-10T20:17:44.212Z,101.50
2018-12-10T20:19:51.348Z,102.17
2018-12-10T20:21:58.314Z,92.47
2018-12-10T20:24:05.209Z,86.00
2018-12-10T20:26:12.180Z,86.40
2018-12-10T20:28:19.035Z,82.23
2018-12-10T20:30:26.010Z,89.30
2018-12-10T20:32:33.003Z,80.90
2018-12-10T20:34:40.360Z,76.87
2018-12-10T20:36:47.108Z,84.83
2018-12-10T20:38:53.990Z,86.30
2018-12-10T20:41:00.649Z,102.27
2018-12-10T20:43:07.554Z,110.53
2018-12-10T20:45:14.604Z,113.43
2018-12-10T20:47:21.441Z,112.73
2018-12-10T20:49:28.885Z,112.47
2018-12-10T20:51:35.599Z,114.73
2018-12-10T20:53:42.508Z,114.60
2018-12-10T20:55:49.149Z,112.37
2018-12-10T20:57:57.457Z,107.50
2018-12-10T21:00:04.587Z,114.60
2018-12-10T21:02:11.489Z,115.97
2018-12-10T21:04:18.419Z,117.00
2018-12-10T21:06:29.862Z,117.57
2018-12-10T21:08:36.787Z,120.13
2018-12-10T21:10:44.138Z,115.77
2018-12-10T21:12:51.407Z,113.07
2018-12-10T21:15:00.543Z,110.80
2018-12-10T21:17:07.473Z,118.00
2018-12-10T21:19:14.345Z,116.20
2018-12-10T21:21:21.386Z,115.97
2018-12-10T21:23:28.411Z,115.90
2018-12-10T21:25:35.208Z,116.60
2018-12-10T21:27:42.049Z,118.57
2018-12-10T21:29:48.607Z,116.40
2018-12-10T21:31:55.893Z,120.50
2018-12-10T21:34:02.728Z,118.53
2018-12-10T21:36:10.324Z,126.33
2018-12-10T21:38:17.429Z,125.93
2018-12-10T21:40:24.774Z,123.83
2018-12-10T21:42:31.724Z,122.97
2018-12-10T21:44:38.791Z,112.47
2018-12-10T21:46:45.648Z,109.57
2018-12-10T21:48:52.606Z,106.47
2018-12-10T21:50:59.638Z,101.13
2018-12-10T21:53:06.403Z,99.03
2018-12-10T21:55:16.893Z,95.40
2018-12-10T21:57:22.373Z,96.17
2018-12-10T21:59:29.218Z,95.57
2018-12-10T22:01:35.742Z,92.10
2018-12-10T22:03:42.590Z,107.37
2018-12-10T22:05:49.599Z,101.13
2018-12-10T22:07:56.466Z,113.37
2018-12-10T22:10:03.319Z,122.07
2018-12-10T22:12:10.051Z,126.97
2018-12-10T22:14:16.773Z,122.63
2018-12-10T22:16:23.545Z,115.30
2018-12-10T22:18:30.821Z,124.33
2018-12-10T22:20:37.873Z,122.50
2018-12-10T22:22:44.836Z,122.60
2018-12-10T22:24:51.380Z,119.80
2018-12-10T22:26:58.326Z,121.57
2018-12-10T22:29:05.663Z,122.43
2018-12-10T22:31:12.405Z,121.37
2018-12-10T22:33:18.987Z,117.90
2018-12-10T22:35:25.749Z,112.23
2018-12-10T22:37:32.677Z,105.00
2018-12-10T22:39:39.766Z,95.43
2018-12-10T22:41:46.416Z,95.77
2018-12-10T22:43:53.175Z,98.00
2018-12-10T22:46:00.995Z,104.63
2018-12-10T22:48:07.873Z,94.73
2018-12-10T22:50:14.645Z,96.20
2018-12-10T22:52:21.527Z,108.10
2018-12-10T22:54:28.447Z,122.13
2018-12-10T22:56:35.230Z,117.33
2018-12-10T22:58:42.274Z,128.30
2018-12-10T23:00:54.211Z,127.90
2018-12-10T23:03:01.210Z,126.53
2018-12-10T23:05:08.141Z,125.80
2018-12-10T23:07:14.789Z,129.10
2018-12-10T23:09:21.881Z,131.27
2018-12-10T23:11:28.740Z,133.47
2018-12-10T23:13:35.664Z,133.10
2018-12-10T23:15:42.617Z,131.27
2018-12-10T23:17:49.314Z,126.40
2018-12-10T23:19:56.382Z,126.67
2018-12-10T23:22:03.183Z,126.77
2018-12-10T23:24:10.023Z,123.97
2018-12-10T23:26:16.906Z,126.00
2018-12-10T23:28:23.600Z,129.20
2018-12-10T23:30:30.647Z,128.03
2018-12-10T23:32:37.386Z,134.20
2018-12-10T23:34:44.430Z,123.17
2018-12-10T23:36:51.114Z,110.40
2018-12-10T23:38:58.173Z,105.23
2018-12-10T23:41:05.530Z,95.67
2018-12-10T23:43:17.564Z,95.50
2018-12-10T23:45:24.928Z,99.57
2018-12-10T23:47:31.853Z,99.73
2018-12-10T23:49:39.285Z,112.23
2018-12-10T23:51:46.352Z,117.87
2018-12-10T23:53:53.109Z,126.40
2018-12-10T23:56:01.275Z,130.20
2018-12-10T23:58:09.090Z,141.73
